createdAt,value
2023-04-06T00:01:09.600Z,60.51
2023-04-06T00:03:37.331Z,60.90
2023-04-06T00:06:05.172Z,59.52
2023-04-06T00:08:32.451Z,59.34
2023-04-06T00:10:59.708Z,60.59
2023-04-06T00:13:27.055Z,60.30
2023-04-06T00:15:54.258Z,61.61
2023-04-06T00:18:21.641Z,61.22
2023-04-06T00:20:48.822Z,60.62
2023-04-06T00:23:16.435Z,60.18
2023-04-06T00:25:43.623Z,60.09
2023-04-06T00:28:10.998Z,60.40
2023-04-06T00:30:38.314Z,60.82
2023-04-06T00:33:05.916Z,61.22
2023-04-06T00:35:33.270Z,60.99
2023-04-06T00:38:00.659Z,60.56
2023-04-06T00:40:29.554Z,60.40
2023-04-06T00:42:56.906Z,60.06
2023-04-06T00:45:24.249Z,60.37
2023-04-06T00:47:51.836Z,60.50
2023-04-06T00:50:19.218Z,61.76
2023-04-06T00:52:46.842Z,61.03
2023-04-06T00:55:14.201Z,61.07
2023-04-06T00:57:43.818Z,62.51
2023-04-06T01:00:12.473Z,61.88
2023-04-06T01:02:40.445Z,61.86
2023-04-06T01:05:09.011Z,62.16
2023-04-06T01:07:47.130Z,61.64
2023-04-06T01:10:28.281Z,60.85
2023-04-06T01:13:12.619Z,60.85
2023-04-06T01:15:51.000Z,61.81
2023-04-06T01:18:29.354Z,61.98
2023-04-06T01:21:16.517Z,62.18
2023-04-06T01:23:58.178Z,62.91
2023-04-06T01:26:36.443Z,63.49
2023-04-06T01:29:07.764Z,62.70
2023-04-06T01:31:35.634Z,62.42
2023-04-06T01:34:02.961Z,62.73
2023-04-06T01:36:30.666Z,63.63
2023-04-06T01:39:18.957Z,62.17
2023-04-06T01:41:48.171Z,61.18
2023-04-06T01:44:20.189Z,62.57
2023-04-06T01:46:53.370Z,62.68
2023-04-06T01:49:20.850Z,62.87
2023-04-06T01:51:55.171Z,62.88
2023-04-06T01:54:22.565Z,61.83
2023-04-06T01:57:11.586Z,61.30
2023-04-06T02:00:01.496Z,63.27
2023-04-06T02:02:54.907Z,63.78
2023-04-06T02:05:27.134Z,63.74
2023-04-06T02:07:56.431Z,65.07
2023-04-06T02:10:32.712Z,63.71
2023-04-06T02:13:04.111Z,62.44
2023-04-06T02:15:32.045Z,62.98
2023-04-06T02:18:00.537Z,64.00
2023-04-06T02:20:27.963Z,65.00
2023-04-06T02:22:55.194Z,64.68
2023-04-06T02:25:22.516Z,64.79
2023-04-06T02:27:49.710Z,65.53
2023-04-06T02:30:16.985Z,66.05
2023-04-06T02:32:44.504Z,66.36
2023-04-06T02:35:12.062Z,65.06
2023-04-06T02:37:41.093Z,64.79
2023-04-06T02:40:09.090Z,64.75
2023-04-06T02:42:36.325Z,65.81
2023-04-06T02:45:04.918Z,65.07
2023-04-06T02:47:38.011Z,65.98
2023-04-06T02:50:06.469Z,66.09
2023-04-06T02:52:37.773Z,65.67
2023-04-06T02:55:05.686Z,65.56
2023-04-06T02:57:32.920Z,66.63
2023-04-06T03:00:00.457Z,67.54
2023-04-06T03:02:35.622Z,67.63
2023-04-06T03:05:08.897Z,66.81
2023-04-06T03:07:40.274Z,65.66
2023-04-06T03:10:12.808Z,66.68
2023-04-06T03:12:40.128Z,67.39
2023-04-06T03:15:16.895Z,67.70
2023-04-06T03:17:49.356Z,68.40
2023-04-06T03:20:36.924Z,66.65
2023-04-06T03:23:04.275Z,66.25
2023-04-06T03:25:36.191Z,68.47
2023-04-06T03:28:06.549Z,68.55
2023-04-06T03:30:38.750Z,69.41
2023-04-06T03:33:06.426Z,68.57
2023-04-06T03:35:39.876Z,67.79
2023-04-06T03:38:08.892Z,67.49
2023-04-06T03:40:36.457Z,66.90
2023-04-06T03:43:05.363Z,66.77
2023-04-06T03:45:35.862Z,67.51
2023-04-06T03:48:03.921Z,69.18
2023-04-06T03:50:34.205Z,67.78
2023-04-06T03:53:04.114Z,67.72
2023-04-06T03:55:31.397Z,68.14
2023-04-06T03:57:58.691Z,68.23
2023-04-06T04:00:26.229Z,68.91
2023-04-06T04:02:56.334Z,68.87
2023-04-06T04:05:26.314Z,67.96
2023-04-06T04:07:54.207Z,67.93
2023-04-06T04:10:25.344Z,68.18
2023-04-06T04:12:52.835Z,70.30
2023-04-06T04:15:20.127Z,71.93
2023-04-06T04:17:50.406Z,72.34
2023-04-06T04:20:18.013Z,70.41
2023-04-06T04:22:45.269Z,70.18
2023-04-06T04:25:12.689Z,69.98
2023-04-06T04:27:45.682Z,70.66
2023-04-06T04:30:13.290Z,72.53
2023-04-06T04:32:40.528Z,73.40
2023-04-06T04:35:10.664Z,72.34
2023-04-06T04:37:42.469Z,71.45
2023-04-06T04:40:11.663Z,70.70
2023-04-06T04:42:48.122Z,71.95
2023-04-06T04:45:23.216Z,71.40
2023-04-06T04:47:50.674Z,71.17
2023-04-06T04:50:19.583Z,70.72
2023-04-06T04:52:50.421Z,70.94
2023-04-06T04:55:22.151Z,71.08
2023-04-06T04:57:53.759Z,71.37
2023-04-06T05:00:26.811Z,71.91
2023-04-06T05:02:57.970Z,71.78
2023-04-06T05:05:31.047Z,70.14
2023-04-06T05:07:58.434Z,69.43
2023-04-06T05:10:39.216Z,70.20
2023-04-06T05:13:06.672Z,70.07
2023-04-06T05:15:36.010Z,70.90
2023-04-06T05:18:11.060Z,70.75
2023-04-06T05:20:41.491Z,70.82
2023-04-06T05:23:09.051Z,69.97
2023-04-06T05:25:36.949Z,70.75
2023-04-06T05:28:15.319Z,69.48
2023-04-06T05:30:45.523Z,69.94
2023-04-06T05:33:13.950Z,69.11
2023-04-06T05:36:02.120Z,68.45
2023-04-06T05:38:30.158Z,69.35
2023-04-06T05:41:02.142Z,69.81
2023-04-06T05:43:32.718Z,69.78
2023-04-06T05:46:01.392Z,68.46
2023-04-06T05:48:28.807Z,66.56
2023-04-06T05:50:56.189Z,64.07
2023-04-06T05:53:30.654Z,61.22
2023-04-06T05:56:03.987Z,59.31
2023-04-06T05:58:31.713Z,57.78
2023-04-06T06:01:04.550Z,57.90
2023-04-06T06:03:42.275Z,57.71
2023-04-06T06:06:09.529Z,55.77
2023-04-06T06:08:47.237Z,56.35
2023-04-06T06:11:17.272Z,56.44
2023-04-06T06:13:44.503Z,56.32
2023-04-06T06:16:11.834Z,56.35
2023-04-06T06:18:44.440Z,53.62
2023-04-06T06:21:13.356Z,54.58
2023-04-06T06:23:42.787Z,53.03
2023-04-06T06:26:12.005Z,52.43
2023-04-06T06:28:39.319Z,53.61
2023-04-06T06:31:06.680Z,51.21
2023-04-06T06:33:34.015Z,52.42
2023-04-06T06:36:01.373Z,50.24
2023-04-06T06:38:28.728Z,49.59
2023-04-06T06:40:56.380Z,48.34
2023-04-06T06:43:26.899Z,47.71
2023-04-06T06:46:00.894Z,48.87
2023-04-06T06:48:29.584Z,48.36
2023-04-06T06:50:56.902Z,47.04
2023-04-06T06:53:24.980Z,46.34
2023-04-06T06:55:52.209Z,47.51
2023-04-06T06:58:23.793Z,45.13
2023-04-06T07:00:51.214Z,44.88
2023-04-06T07:03:19.385Z,45.86
2023-04-06T07:05:53.783Z,45.12
2023-04-06T07:08:22.806Z,45.19
2023-04-06T07:10:53.428Z,45.62
2023-04-06T07:13:24.865Z,43.75
2023-04-06T07:15:55.069Z,43.92
2023-04-06T07:18:23.370Z,43.61
2023-04-06T07:20:51.098Z,42.19
2023-04-06T07:23:18.832Z,40.52
2023-04-06T07:25:46.602Z,43.27
2023-04-06T07:28:13.903Z,41.41
2023-04-06T07:30:41.850Z,43.26
2023-04-06T07:33:10.838Z,41.79
2023-04-06T07:35:39.014Z,42.33
2023-04-06T07:38:07.038Z,41.14
2023-04-06T07:40:35.777Z,40.63
2023-04-06T07:43:04.427Z,40.20
2023-04-06T07:45:32.605Z,37.37
2023-04-06T07:48:01.388Z,38.99
2023-04-06T07:50:29.091Z,40.55
2023-04-06T07:52:57.276Z,38.55
2023-04-06T07:55:24.677Z,38.10
2023-04-06T07:57:52.030Z,36.95
2023-04-06T08:00:19.627Z,35.89
2023-04-06T08:02:47.138Z,35.10
2023-04-06T08:05:14.560Z,35.39
2023-04-06T08:07:42.676Z,35.52
2023-04-06T08:10:15.342Z,34.81
2023-04-06T08:12:42.803Z,35.89
2023-04-06T08:15:10.449Z,36.06
2023-04-06T08:17:37.828Z,37.73
2023-04-06T08:20:05.461Z,35.79
2023-04-06T08:22:32.779Z,36.01
2023-04-06T08:25:00.106Z,36.10
2023-04-06T08:27:27.514Z,35.49
2023-04-06T08:29:54.794Z,36.06
2023-04-06T08:32:22.199Z,35.62
2023-04-06T08:34:49.520Z,35.43
2023-04-06T08:37:16.956Z,36.44
2023-04-06T08:39:44.274Z,35.77
2023-04-06T08:42:15.537Z,34.68
2023-04-06T08:44:43.261Z,35.06
2023-04-06T08:47:10.765Z,35.27
2023-04-06T08:49:39.801Z,34.80
2023-04-06T08:52:11.978Z,35.57
2023-04-06T08:54:39.898Z,36.71
2023-04-06T08:57:08.874Z,34.74
2023-04-06T08:59:37.584Z,35.39
2023-04-06T09:02:08.430Z,35.39
2023-04-06T09:04:37.582Z,34.57
2023-04-06T09:07:04.937Z,35.62
2023-04-06T09:09:32.210Z,35.91
2023-04-06T09:12:06.712Z,35.22
2023-04-06T09:14:38.871Z,35.56
2023-04-06T09:17:06.879Z,35.27
2023-04-06T09:19:34.221Z,33.92
2023-04-06T09:22:10.996Z,32.58
2023-04-06T09:24:46.769Z,33.12
2023-04-06T09:27:14.933Z,32.84
2023-04-06T09:29:43.224Z,33.39
2023-04-06T09:32:12.090Z,34.28
2023-04-06T09:34:40.216Z,34.49
2023-04-06T09:37:17.826Z,36.05
2023-04-06T09:39:46.031Z,35.71
2023-04-06T09:42:25.831Z,36.63
2023-04-06T09:44:53.181Z,36.01
2023-04-06T09:47:21.720Z,36.33
2023-04-06T09:49:51.486Z,36.44
2023-04-06T09:52:20.265Z,37.51
2023-04-06T09:54:51.706Z,36.96
2023-04-06T09:57:30.071Z,38.09
2023-04-06T10:00:12.559Z,37.03
2023-04-06T10:02:51.881Z,37.08
2023-04-06T10:05:47.602Z,37.18
2023-04-06T10:08:15.947Z,37.11
2023-04-06T10:10:44.212Z,37.59
2023-04-06T10:13:12.831Z,36.96
2023-04-06T10:15:43.127Z,37.10
2023-04-06T10:18:10.600Z,36.66
2023-04-06T10:20:42.987Z,36.71
2023-04-06T10:23:38.001Z,36.87
2023-04-06T10:26:05.493Z,37.32
2023-04-06T10:28:36.689Z,36.48
2023-04-06T10:31:07.376Z,37.51
2023-04-06T10:33:35.156Z,37.58
2023-04-06T10:36:16.453Z,37.27
2023-04-06T10:38:43.929Z,36.81
2023-04-06T10:41:12.741Z,36.64
2023-04-06T10:43:42.448Z,37.13
2023-04-06T10:46:11.606Z,36.56
2023-04-06T10:48:47.627Z,36.94
2023-04-06T10:51:17.108Z,36.78
2023-04-06T10:53:46.710Z,36.57
2023-04-06T10:56:17.176Z,36.86
2023-04-06T10:58:49.348Z,36.97
2023-04-06T11:01:18.495Z,36.22
2023-04-06T11:03:54.331Z,36.60
2023-04-06T11:06:30.401Z,37.06
2023-04-06T11:08:58.586Z,36.06
2023-04-06T11:11:27.769Z,36.75
2023-04-06T11:13:56.676Z,36.55
2023-04-06T11:16:28.961Z,36.30
2023-04-06T11:19:04.186Z,35.65
2023-04-06T11:21:48.445Z,35.68
2023-04-06T11:24:24.130Z,35.70
2023-04-06T11:26:58.969Z,35.23
2023-04-06T11:29:34.838Z,34.85
2023-04-06T11:32:06.881Z,35.41
2023-04-06T11:34:39.424Z,35.40
2023-04-06T11:37:12.011Z,35.07
2023-04-06T11:39:41.692Z,34.92
2023-04-06T11:42:09.550Z,35.22
2023-04-06T11:44:50.576Z,35.14
2023-04-06T11:47:18.077Z,35.60
2023-04-06T11:49:46.363Z,35.59
2023-04-06T11:52:28.839Z,34.57
2023-04-06T11:54:58.319Z,36.14
2023-04-06T11:57:26.620Z,35.11
2023-04-06T11:59:54.300Z,35.01
2023-04-06T12:02:21.637Z,35.08
2023-04-06T12:04:49.015Z,33.66
2023-04-06T12:07:16.790Z,34.84
2023-04-06T12:09:44.401Z,34.66
2023-04-06T12:12:11.803Z,34.78
2023-04-06T12:14:39.159Z,34.95
2023-04-06T12:17:06.396Z,34.72
2023-04-06T12:19:33.703Z,34.46
2023-04-06T12:22:01.023Z,34.96
2023-04-06T12:24:29.674Z,34.85
2023-04-06T12:27:08.630Z,34.34
2023-04-06T12:29:38.252Z,34.68
2023-04-06T12:32:06.393Z,35.68
2023-04-06T12:34:33.797Z,35.71
2023-04-06T12:37:01.165Z,37.26
2023-04-06T12:39:28.920Z,35.17
2023-04-06T12:41:57.315Z,35.60
2023-04-06T12:44:25.636Z,35.65
2023-04-06T12:46:54.186Z,36.07
2023-04-06T12:49:22.943Z,36.07
2023-04-06T12:51:51.307Z,36.15
2023-04-06T12:54:18.681Z,35.19
2023-04-06T12:56:45.956Z,35.31
2023-04-06T12:59:13.370Z,35.94
2023-04-06T13:01:40.900Z,36.01
2023-04-06T13:04:08.111Z,35.72
2023-04-06T13:06:35.617Z,35.68
2023-04-06T13:09:03.078Z,35.57
2023-04-06T13:11:30.920Z,36.58
2023-04-06T13:13:58.267Z,35.98
2023-04-06T13:16:25.931Z,36.26
2023-04-06T13:18:53.268Z,36.86
2023-04-06T13:21:21.803Z,37.22
2023-04-06T13:23:49.159Z,37.09
2023-04-06T13:26:17.706Z,36.66
2023-04-06T13:28:45.160Z,36.10
2023-04-06T13:31:12.619Z,36.37
2023-04-06T13:33:41.812Z,35.10
2023-04-06T13:36:09.478Z,35.42
2023-04-06T13:38:39.807Z,36.39
2023-04-06T13:41:07.172Z,36.99
2023-04-06T13:43:34.482Z,36.61
2023-04-06T13:46:02.487Z,35.85
2023-04-06T13:48:29.944Z,35.39
2023-04-06T13:50:57.290Z,36.68
2023-04-06T13:53:24.507Z,36.65
2023-04-06T13:55:56.118Z,35.29
2023-04-06T13:58:23.818Z,34.71
2023-04-06T14:00:51.820Z,34.71
2023-04-06T14:03:20.078Z,35.29
2023-04-06T14:05:47.389Z,35.94
2023-04-06T14:08:14.770Z,36.46
2023-04-06T14:10:43.359Z,37.07
2023-04-06T14:13:11.490Z,37.14
2023-04-06T14:15:39.041Z,36.78
2023-04-06T14:18:06.892Z,37.20
2023-04-06T14:20:34.342Z,35.64
2023-04-06T14:23:04.975Z,35.39
2023-04-06T14:25:33.119Z,36.41
2023-04-06T14:28:00.354Z,35.35
2023-04-06T14:30:28.936Z,35.44
2023-04-06T14:32:58.855Z,35.02
2023-04-06T14:35:26.559Z,36.41
2023-04-06T14:37:53.746Z,36.93
2023-04-06T14:40:20.896Z,37.17
2023-04-06T14:42:48.092Z,38.14
2023-04-06T14:45:15.793Z,37.57
2023-04-06T14:47:43.019Z,37.04
2023-04-06T14:50:10.701Z,38.22
2023-04-06T14:52:38.217Z,38.46
2023-04-06T14:55:05.822Z,37.17
2023-04-06T14:57:33.734Z,38.05
2023-04-06T15:00:00.955Z,37.91
2023-04-06T15:02:28.333Z,38.02
2023-04-06T15:04:55.893Z,38.61
2023-04-06T15:07:23.051Z,38.10
2023-04-06T15:09:50.451Z,37.81
2023-04-06T15:12:17.580Z,38.07
2023-04-06T15:14:44.825Z,38.39
2023-04-06T15:17:12.015Z,37.52
2023-04-06T15:19:39.208Z,37.40
2023-04-06T15:22:06.353Z,37.16
2023-04-06T15:24:33.604Z,37.73
2023-04-06T15:27:00.834Z,37.81
2023-04-06T15:29:28.079Z,38.06
2023-04-06T15:31:55.365Z,38.80
2023-04-06T15:34:22.718Z,37.93
2023-04-06T15:36:49.919Z,38.46
2023-04-06T15:39:17.196Z,38.29
2023-04-06T15:41:44.333Z,38.84
2023-04-06T15:44:11.532Z,38.47
2023-04-06T15:46:38.693Z,38.42
2023-04-06T15:49:06.235Z,38.08
2023-04-06T15:51:33.788Z,38.13
2023-04-06T15:54:01.113Z,38.01
2023-04-06T15:56:28.346Z,38.07
2023-04-06T15:58:55.602Z,38.88
2023-04-06T16:01:22.848Z,38.54
2023-04-06T16:03:50.302Z,39.03
2023-04-06T16:06:17.966Z,38.88
2023-04-06T16:08:45.539Z,39.23
2023-04-06T16:11:12.946Z,39.51
2023-04-06T16:13:40.427Z,39.16
2023-04-06T16:16:09.044Z,39.13
2023-04-06T16:18:36.762Z,39.89
2023-04-06T16:21:04.120Z,40.19
2023-04-06T16:23:31.492Z,40.15
2023-04-06T16:25:58.726Z,40.75
2023-04-06T16:28:25.914Z,40.86
2023-04-06T16:30:53.319Z,40.27
2023-04-06T16:33:21.076Z,41.27
2023-04-06T16:35:51.327Z,40.88
2023-04-06T16:38:18.664Z,40.51
2023-04-06T16:40:46.103Z,40.98
2023-04-06T16:43:14.290Z,40.73
2023-04-06T16:45:41.583Z,40.96
2023-04-06T16:48:08.888Z,41.35
2023-04-06T16:50:36.450Z,40.55
2023-04-06T16:53:03.775Z,40.48
2023-04-06T16:55:31.043Z,41.04
2023-04-06T16:57:58.206Z,41.11
2023-04-06T17:00:25.380Z,41.47
2023-04-06T17:02:52.763Z,41.41
2023-04-06T17:05:24.802Z,40.55
2023-04-06T17:07:55.445Z,40.80
2023-04-06T17:10:28.929Z,41.15
2023-04-06T17:13:01.711Z,44.00
2023-04-06T17:15:29.610Z,44.98
2023-04-06T17:17:58.007Z,45.08
2023-04-06T17:20:25.203Z,45.66
2023-04-06T17:22:52.526Z,45.77
2023-04-06T17:25:19.825Z,45.91
2023-04-06T17:27:47.568Z,44.50
2023-04-06T17:30:17.015Z,44.29
2023-04-06T17:32:46.227Z,44.55
2023-04-06T17:35:13.618Z,44.70
2023-04-06T17:37:44.460Z,45.27
2023-04-06T17:40:11.928Z,44.86
2023-04-06T17:42:39.110Z,45.81
2023-04-06T17:45:07.140Z,46.59
2023-04-06T17:47:34.319Z,44.51
2023-04-06T17:50:02.312Z,45.28
2023-04-06T17:52:29.658Z,44.21
2023-04-06T17:54:57.000Z,44.34
2023-04-06T17:57:24.289Z,43.85
2023-04-06T17:59:51.597Z,43.44
2023-04-06T18:02:19.985Z,42.89
2023-04-06T18:04:50.892Z,42.55
2023-04-06T18:07:18.213Z,43.34
2023-04-06T18:09:45.544Z,43.43
2023-04-06T18:12:12.868Z,44.01
2023-04-06T18:14:41.436Z,44.15
2023-04-06T18:17:08.697Z,43.92
2023-04-06T18:19:36.070Z,44.08
2023-04-06T18:22:03.375Z,45.17
2023-04-06T18:24:41.322Z,47.11
2023-04-06T18:27:10.642Z,47.23
2023-04-06T18:29:38.045Z,47.84
2023-04-06T18:32:06.596Z,48.09
2023-04-06T18:34:34.184Z,48.74
2023-04-06T18:37:01.819Z,48.95
2023-04-06T18:39:29.204Z,49.44
2023-04-06T18:41:56.667Z,49.42
2023-04-06T18:44:23.847Z,50.36
2023-04-06T18:46:54.366Z,49.88
2023-04-06T18:49:22.527Z,50.28
2023-04-06T18:51:49.823Z,50.87
2023-04-06T18:54:17.126Z,50.21
2023-04-06T18:56:44.442Z,50.33
2023-04-06T18:59:12.126Z,51.11
2023-04-06T19:01:43.682Z,50.97
2023-04-06T19:04:14.076Z,51.25
2023-04-06T19:06:41.418Z,51.90
2023-04-06T19:09:08.561Z,53.09
2023-04-06T19:11:36.940Z,53.22
2023-04-06T19:14:04.380Z,52.96
2023-04-06T19:16:31.637Z,52.61
2023-04-06T19:19:00.031Z,52.74
2023-04-06T19:21:27.983Z,52.74
2023-04-06T19:23:56.140Z,53.20
2023-04-06T19:26:25.383Z,52.95
2023-04-06T19:28:52.555Z,52.93
2023-04-06T19:31:19.948Z,54.27
2023-04-06T19:33:48.028Z,54.40
2023-04-06T19:36:16.025Z,54.44
2023-04-06T19:38:43.394Z,54.45
2023-04-06T19:41:10.549Z,54.15
2023-04-06T19:43:38.101Z,54.67
2023-04-06T19:46:05.752Z,54.74
2023-04-06T19:48:34.003Z,54.71
2023-04-06T19:51:01.315Z,54.89
2023-04-06T19:53:28.501Z,54.55
2023-04-06T19:55:55.758Z,54.49
2023-04-06T19:58:23.697Z,54.25
2023-04-06T20:00:51.044Z,54.31
2023-04-06T20:03:18.347Z,55.30
2023-04-06T20:05:46.679Z,54.57
2023-04-06T20:08:14.216Z,55.20
2023-04-06T20:10:41.582Z,55.45
2023-04-06T20:13:08.794Z,55.20
2023-04-06T20:15:36.033Z,55.43
2023-04-06T20:18:03.422Z,56.43
2023-04-06T20:20:30.949Z,56.93
2023-04-06T20:22:58.163Z,56.61
2023-04-06T20:25:25.707Z,57.25
2023-04-06T20:27:54.073Z,56.43
2023-04-06T20:30:21.359Z,56.80
2023-04-06T20:32:48.617Z,56.88
2023-04-06T20:35:16.486Z,57.30
2023-04-06T20:37:46.329Z,57.71
2023-04-06T20:40:13.688Z,57.67
2023-04-06T20:42:41.799Z,57.98
2023-04-06T20:45:09.504Z,57.96
2023-04-06T20:47:36.719Z,58.42
2023-04-06T20:50:04.183Z,58.01
2023-04-06T20:52:31.403Z,57.87
2023-04-06T20:54:58.592Z,58.83
2023-04-06T20:57:26.072Z,59.07
2023-04-06T20:59:53.547Z,58.81
2023-04-06T21:02:21.218Z,59.03
2023-04-06T21:04:48.611Z,59.43
2023-04-06T21:07:15.923Z,59.81
2023-04-06T21:09:43.089Z,59.41
2023-04-06T21:12:10.266Z,59.23
2023-04-06T21:14:37.580Z,59.25
2023-04-06T21:17:04.851Z,60.61
2023-04-06T21:19:32.106Z,60.84
2023-04-06T21:21:59.613Z,60.01
2023-04-06T21:24:27.106Z,60.00
2023-04-06T21:26:54.405Z,60.79
2023-04-06T21:29:21.669Z,61.29
2023-04-06T21:31:48.893Z,60.94
2023-04-06T21:34:16.335Z,61.27
2023-04-06T21:36:44.040Z,60.59
2023-04-06T21:39:11.203Z,60.66
2023-04-06T21:41:40.342Z,61.14
2023-04-06T21:44:07.619Z,61.64
2023-04-06T21:46:35.301Z,61.51
2023-04-06T21:49:02.494Z,61.13
2023-04-06T21:51:29.765Z,61.83
2023-04-06T21:53:56.947Z,62.07
2023-04-06T21:56:25.398Z,62.73
2023-04-06T21:58:53.496Z,62.49
2023-04-06T22:01:21.259Z,61.93
2023-04-06T22:03:48.686Z,62.31
2023-04-06T22:06:16.098Z,62.21
2023-04-06T22:08:46.050Z,63.13
2023-04-06T22:11:13.217Z,62.35
2023-04-06T22:13:40.330Z,61.85
2023-04-06T22:16:08.125Z,62.30
2023-04-06T22:18:38.068Z,62.68
2023-04-06T22:21:07.079Z,62.18
2023-04-06T22:23:35.609Z,63.02
2023-04-06T22:26:02.919Z,62.87
2023-04-06T22:28:30.063Z,63.56
2023-04-06T22:30:57.263Z,63.72
2023-04-06T22:33:24.470Z,63.34
2023-04-06T22:35:51.677Z,63.20
2023-04-06T22:38:18.865Z,62.70
2023-04-06T22:40:46.083Z,64.05
2023-04-06T22:43:13.254Z,63.98
2023-04-06T22:45:40.534Z,64.39
2023-04-06T22:48:08.135Z,63.88
2023-04-06T22:50:35.490Z,64.20
2023-04-06T22:53:02.648Z,64.10
2023-04-06T22:55:30.179Z,64.41
2023-04-06T22:57:57.342Z,64.44
2023-04-06T23:00:24.646Z,64.32
2023-04-06T23:02:51.990Z,64.21
2023-04-06T23:05:19.293Z,64.87
2023-04-06T23:07:46.953Z,63.42
2023-04-06T23:10:14.746Z,64.36
2023-04-06T23:12:41.873Z,64.27
2023-04-06T23:15:09.682Z,64.52
2023-04-06T23:17:36.802Z,64.26
2023-04-06T23:20:04.518Z,65.06
2023-04-06T23:22:31.906Z,65.66
2023-04-06T23:24:59.046Z,65.25
2023-04-06T23:27:26.171Z,66.61
2023-04-06T23:29:54.231Z,67.37
2023-04-06T23:32:21.463Z,68.70
2023-04-06T23:34:48.700Z,68.69
2023-04-06T23:37:16.264Z,68.93
2023-04-06T23:39:44.883Z,69.15
2023-04-06T23:42:12.062Z,69.69
2023-04-06T23:44:39.259Z,69.06
2023-04-06T23:47:06.611Z,70.01
2023-04-06T23:49:34.260Z,70.18
2023-04-06T23:52:01.814Z,70.05
2023-04-06T23:54:29.054Z,70.21
2023-04-06T23:56:58.268Z,69.62
2023-04-06T23:59:25.774Z,69.39
